Time;durP1;ratioP1;P1;durP2;ratioP2;P2;SDS_P1;SDS_P2;PMS_P1;PMS_P2;Temp;Humidity;BMP_temperature;BMP_pressure;BME280_temperature;BME280_humidity;BME280_pressure;Samples;Min_cycle;Max_cycle;Signal;HPM_P1;HPM_P2
2023/09/21 00:02:20;;;;;;;3.17;1.80;;;;;;;;;;5011336;28;20208;-54
2023/09/21 00:04:48;;;;;;;3.40;2.10;;;;;;;;;;4992241;28;20653;-54
2023/09/21 00:07:14;;;;;;;2.13;1.87;;;;;;;;;;4991710;28;20260;-54
2023/09/21 00:09:40;;;;;;;3.57;2.07;;;;;;;;;;4991650;28;20194;-54
2023/09/21 00:12:10;;;;;;;3.23;2.27;;;;;;;;;;4991621;28;20195;-54
2023/09/21 00:14:36;;;;;;;2.70;1.90;;;;;;;;;;4991929;28;20257;-54
2023/09/21 00:17:03;;;;;;;3.17;2.00;;;;;;;;;;4991616;28;20568;-54
2023/09/21 00:19:30;;;;;;;3.20;1.80;;;;;;;;;;4991573;28;20207;-53
2023/09/21 00:21:57;;;;;;;2.40;1.80;;;;;;;;;;4991590;28;20228;-55
2023/09/21 00:24:23;;;;;;;2.83;2.13;;;;;;;;;;4991650;28;20590;-54
2023/09/21 00:26:51;;;;;;;3.23;1.83;;;;;;;;;;4991797;28;20194;-53
2023/09/21 00:29:17;;;;;;;2.53;2.10;;;;;;;;;;4991772;28;20208;-53
2023/09/21 00:31:43;;;;;;;5.07;2.10;;;;;;;;;;4991709;28;20285;-53
2023/09/21 00:34:11;;;;;;;4.07;2.07;;;;;;;;;;4991684;28;20201;-53
2023/09/21 00:36:40;;;;;;;3.47;1.93;;;;;;;;;;4993440;28;20226;-53
2023/09/21 00:39:11;;;;;;;4.47;2.00;;;;;;;;;;4995143;28;20240;-53
2023/09/21 00:41:37;;;;;;;2.37;1.90;;;;;;;;;;4995267;28;20258;-53
2023/09/21 00:44:06;;;;;;;2.30;1.83;;;;;;;;;;4995216;28;20196;-53
2023/09/21 00:46:34;;;;;;;2.40;2.20;;;;;;;;;;4995234;28;20223;-53
2023/09/21 00:49:00;;;;;;;2.03;1.83;;;;;;;;;;4995037;28;20265;-53
2023/09/21 00:51:27;;;;;;;2.70;2.03;;;;;;;;;;4994824;28;20212;-53
2023/09/21 00:53:56;;;;;;;2.77;2.00;;;;;;;;;;4995059;28;20201;-53
2023/09/21 00:56:22;;;;;;;3.63;2.00;;;;;;;;;;4994949;28;20200;-53
2023/09/21 00:58:50;;;;;;;2.27;1.87;;;;;;;;;;4995024;28;20204;-53
2023/09/21 01:01:27;;;;;;;3.33;2.20;;;;;;;;;;4994944;28;20220;-53
2023/09/21 01:03:55;;;;;;;2.00;1.80;;;;;;;;;;4994903;28;20215;-54
2023/09/21 01:06:21;;;;;;;3.07;2.13;;;;;;;;;;4994517;28;20599;-53
2023/09/21 01:08:48;;;;;;;3.10;2.10;;;;;;;;;;4994843;28;20386;-53
2023/09/21 01:11:16;;;;;;;4.93;2.27;;;;;;;;;;4994543;28;20220;-53
2023/09/21 01:13:42;;;;;;;2.77;2.00;;;;;;;;;;4994588;28;20218;-54
2023/09/21 01:16:11;;;;;;;2.80;2.33;;;;;;;;;;4994436;28;20598;-54
2023/09/21 01:18:41;;;;;;;3.80;2.57;;;;;;;;;;4994762;28;20204;-53
2023/09/21 01:21:13;;;;;;;2.47;1.87;;;;;;;;;;4994234;28;20619;-54
2023/09/21 01:23:43;;;;;;;3.10;2.00;;;;;;;;;;4994443;28;20257;-54
2023/09/21 01:26:10;;;;;;;2.20;2.00;;;;;;;;;;4994198;28;20225;-54
2023/09/21 01:28:37;;;;;;;3.93;2.37;;;;;;;;;;4994371;28;20654;-54
2023/09/21 01:31:03;;;;;;;4.47;2.67;;;;;;;;;;4994317;28;20202;-54
2023/09/21 01:33:29;;;;;;;7.20;2.27;;;;;;;;;;4994272;28;20209;-54
2023/09/21 01:35:55;;;;;;;3.63;2.17;;;;;;;;;;4994075;28;20220;-54
2023/09/21 01:38:27;;;;;;;4.40;1.90;;;;;;;;;;4993862;28;20239;-54
2023/09/21 01:40:54;;;;;;;2.53;2.10;;;;;;;;;;4994268;28;20203;-54
2023/09/21 01:43:21;;;;;;;4.43;2.20;;;;;;;;;;4994001;28;20564;-54
2023/09/21 01:45:48;;;;;;;2.60;2.37;;;;;;;;;;4994078;28;20272;-54
2023/09/21 01:48:15;;;;;;;5.30;2.33;;;;;;;;;;4993905;28;20616;-54
2023/09/21 01:50:43;;;;;;;2.17;1.90;;;;;;;;;;4994000;28;20198;-54
2023/09/21 01:53:10;;;;;;;3.33;2.23;;;;;;;;;;4993696;28;20208;-53
2023/09/21 01:55:36;;;;;;;2.53;2.00;;;;;;;;;;4993834;28;20661;-53
2023/09/21 01:58:05;;;;;;;3.47;2.10;;;;;;;;;;4993852;28;20753;-54
2023/09/21 02:00:34;;;;;;;4.13;2.13;;;;;;;;;;4993906;28;20746;-54
2023/09/21 02:03:03;;;;;;;2.17;1.90;;;;;;;;;;4993727;28;20203;-54
2023/09/21 02:05:29;;;;;;;1.80;1.70;;;;;;;;;;4993675;28;20231;-54
2023/09/21 02:07:55;;;;;;;3.57;2.23;;;;;;;;;;4993546;28;20247;-54
2023/09/21 02:10:21;;;;;;;5.37;2.50;;;;;;;;;;4993466;28;20238;-54
2023/09/21 02:12:54;;;;;;;2.97;2.20;;;;;;;;;;4993733;28;20209;-54
2023/09/21 02:15:22;;;;;;;2.40;2.10;;;;;;;;;;4993546;28;20718;-53
2023/09/21 02:17:48;;;;;;;3.40;2.07;;;;;;;;;;4993531;28;20210;-53
2023/09/21 02:20:17;;;;;;;2.50;2.10;;;;;;;;;;4993168;28;20203;-54
2023/09/21 02:22:45;;;;;;;2.20;2.00;;;;;;;;;;4993283;28;20203;-53
2023/09/21 02:25:11;;;;;;;4.23;1.90;;;;;;;;;;4993062;28;20268;-54
2023/09/21 02:27:38;;;;;;;2.83;2.37;;;;;;;;;;4993370;28;20199;-53
2023/09/21 02:30:06;;;;;;;3.87;2.33;;;;;;;;;;4993251;28;20249;-54
2023/09/21 02:32:33;;;;;;;2.20;1.90;;;;;;;;;;4993283;28;20274;-53
2023/09/21 02:35:00;;;;;;;3.40;2.10;;;;;;;;;;4992956;28;20697;-53
2023/09/21 02:37:26;;;;;;;2.83;1.87;;;;;;;;;;4992645;28;20345;-54
2023/09/21 02:39:52;;;;;;;3.60;2.20;;;;;;;;;;4993170;28;20202;-53
2023/09/21 02:42:18;;;;;;;3.63;2.00;;;;;;;;;;4993148;28;20684;-54
2023/09/21 02:44:45;;;;;;;2.50;2.03;;;;;;;;;;4992843;28;20272;-54
2023/09/21 02:47:12;;;;;;;3.00;1.90;;;;;;;;;;4992708;28;20229;-54
2023/09/21 02:49:39;;;;;;;3.10;2.30;;;;;;;;;;4992817;28;20202;-54
2023/09/21 02:52:05;;;;;;;4.07;2.00;;;;;;;;;;4992770;28;20213;-54
2023/09/21 02:54:32;;;;;;;3.20;2.40;;;;;;;;;;4992875;28;20285;-54
2023/09/21 02:56:59;;;;;;;4.47;2.50;;;;;;;;;;4992693;28;20257;-53
2023/09/21 02:59:26;;;;;;;3.73;2.00;;;;;;;;;;4991896;28;20767;-53
2023/09/21 03:01:54;;;;;;;3.40;2.23;;;;;;;;;;4992660;28;20210;-53
2023/09/21 03:04:20;;;;;;;4.30;2.60;;;;;;;;;;4992576;28;20661;-53
2023/09/21 03:06:47;;;;;;;3.13;2.30;;;;;;;;;;4992350;28;20230;-53
2023/09/21 03:09:14;;;;;;;3.47;2.17;;;;;;;;;;4992251;28;20249;-53
2023/09/21 03:11:40;;;;;;;2.90;2.23;;;;;;;;;;4992516;28;20222;-53
2023/09/21 03:14:06;;;;;;;4.60;2.30;;;;;;;;;;4992363;28;20206;-53
2023/09/21 03:16:33;;;;;;;3.33;2.20;;;;;;;;;;4992594;28;20215;-54
2023/09/21 03:18:59;;;;;;;2.80;2.50;;;;;;;;;;4992303;28;20233;-54
2023/09/21 03:21:25;;;;;;;3.77;2.40;;;;;;;;;;4992356;28;20234;-53
2023/09/21 03:23:53;;;;;;;3.50;2.33;;;;;;;;;;4992329;28;20551;-54
2023/09/21 03:26:19;;;;;;;4.07;2.30;;;;;;;;;;4992154;28;20222;-53
2023/09/21 03:28:47;;;;;;;2.93;2.40;;;;;;;;;;4992183;28;20281;-53
2023/09/21 03:31:13;;;;;;;2.60;2.23;;;;;;;;;;4992092;28;20257;-54
2023/09/21 03:33:40;;;;;;;4.80;2.17;;;;;;;;;;4992094;28;20269;-54
2023/09/21 03:36:13;;;;;;;2.80;2.50;;;;;;;;;;4991941;28;20717;-53
2023/09/21 03:38:39;;;;;;;4.27;2.40;;;;;;;;;;4991919;28;20297;-53
2023/09/21 03:41:07;;;;;;;3.77;2.23;;;;;;;;;;4992072;28;20198;-53
2023/09/21 03:43:33;;;;;;;3.57;2.50;;;;;;;;;;4992175;28;20202;-53
2023/09/21 03:45:59;;;;;;;6.00;2.97;;;;;;;;;;4992054;28;20285;-53
2023/09/21 03:48:25;;;;;;;2.90;2.40;;;;;;;;;;4991906;28;20620;-53
2023/09/21 03:50:52;;;;;;;3.67;2.17;;;;;;;;;;4991978;28;20249;-53
2023/09/21 03:53:18;;;;;;;3.00;2.50;;;;;;;;;;4991992;28;20577;-53
2023/09/21 03:55:46;;;;;;;3.20;2.40;;;;;;;;;;4991982;28;20276;-54
2023/09/21 03:58:15;;;;;;;3.03;2.60;;;;;;;;;;4992229;28;20202;-53
2023/09/21 04:00:41;;;;;;;3.00;2.70;;;;;;;;;;4991791;28;20226;-54
2023/09/21 04:03:10;;;;;;;3.40;2.00;;;;;;;;;;4992020;28;20213;-53
2023/09/21 04:05:37;;;;;;;4.90;2.77;;;;;;;;;;4991598;28;20226;-54
2023/09/21 04:08:04;;;;;;;3.17;2.43;;;;;;;;;;4991967;28;20253;-53
2023/09/21 04:10:30;;;;;;;2.43;2.20;;;;;;;;;;4993496;28;20196;-54
2023/09/21 04:12:56;;;;;;;2.80;2.47;;;;;;;;;;4995784;28;20736;-53
2023/09/21 04:15:27;;;;;;;2.57;2.37;;;;;;;;;;4995737;28;20194;-53
2023/09/21 04:17:54;;;;;;;2.77;2.37;;;;;;;;;;4995733;28;20276;-54
2023/09/21 04:20:21;;;;;;;2.83;2.60;;;;;;;;;;4995827;28;20667;-54
2023/09/21 04:22:49;;;;;;;2.83;2.60;;;;;;;;;;4995776;28;20203;-54
2023/09/21 04:25:16;;;;;;;3.67;2.50;;;;;;;;;;4995425;28;20720;-54
2023/09/21 04:27:43;;;;;;;3.47;2.50;;;;;;;;;;4995573;28;20261;-54
2023/09/21 04:30:14;;;;;;;3.93;2.53;;;;;;;;;;4995378;28;20202;-54
2023/09/21 04:32:42;;;;;;;3.97;2.40;;;;;;;;;;4995413;28;20198;-54
2023/09/21 04:35:08;;;;;;;3.83;2.60;;;;;;;;;;4995131;28;20280;-54
2023/09/21 04:37:35;;;;;;;2.93;2.20;;;;;;;;;;4995320;28;20246;-54
2023/09/21 04:40:04;;;;;;;2.50;2.30;;;;;;;;;;4995375;28;20220;-53
2023/09/21 04:42:30;;;;;;;3.77;2.80;;;;;;;;;;4995157;28;20194;-53
2023/09/21 04:44:57;;;;;;;2.50;2.30;;;;;;;;;;4995085;28;20202;-53
2023/09/21 04:47:24;;;;;;;2.60;2.40;;;;;;;;;;4995102;28;20212;-54
2023/09/21 04:49:53;;;;;;;2.50;2.20;;;;;;;;;;4995154;28;20202;-53
2023/09/21 04:52:19;;;;;;;3.97;2.70;;;;;;;;;;4994945;28;20684;-53
2023/09/21 04:54:49;;;;;;;3.23;2.80;;;;;;;;;;4995049;28;20292;-53
2023/09/21 04:57:15;;;;;;;5.33;2.70;;;;;;;;;;4994708;28;20198;-53
2023/09/21 04:59:41;;;;;;;3.20;2.80;;;;;;;;;;4995122;28;20210;-53
2023/09/21 05:02:09;;;;;;;4.40;2.60;;;;;;;;;;4994964;28;20207;-53
2023/09/21 05:04:36;;;;;;;3.70;2.73;;;;;;;;;;4994983;28;20203;-53
2023/09/21 05:07:03;;;;;;;3.23;2.30;;;;;;;;;;4994581;28;20280;-54
2023/09/21 05:09:29;;;;;;;3.57;2.43;;;;;;;;;;4993998;28;20258;-54
2023/09/21 05:11:56;;;;;;;2.80;2.40;;;;;;;;;;4994407;28;20883;-53
2023/09/21 05:14:22;;;;;;;5.27;2.43;;;;;;;;;;4994556;28;20281;-54
2023/09/21 05:16:48;;;;;;;3.03;2.30;;;;;;;;;;4994413;28;20281;-54
2023/09/21 05:19:15;;;;;;;3.77;2.30;;;;;;;;;;4994080;28;20269;-54
2023/09/21 05:21:41;;;;;;;3.20;2.50;;;;;;;;;;4993274;28;20286;-54
2023/09/21 05:24:08;;;;;;;3.37;2.33;;;;;;;;;;4993990;28;20300;-54
2023/09/21 05:26:34;;;;;;;2.83;2.53;;;;;;;;;;4993996;28;20226;-53
2023/09/21 05:29:00;;;;;;;3.07;2.43;;;;;;;;;;4993896;28;20242;-53
2023/09/21 05:31:27;;;;;;;3.00;2.30;;;;;;;;;;4993569;28;20202;-53
2023/09/21 05:33:53;;;;;;;3.83;2.50;;;;;;;;;;4993782;28;20277;-53
2023/09/21 05:36:19;;;;;;;3.30;2.20;;;;;;;;;;4993487;28;20744;-54
2023/09/21 05:38:45;;;;;;;3.03;2.53;;;;;;;;;;4993490;28;20329;-53
2023/09/21 05:41:12;;;;;;;4.40;2.50;;;;;;;;;;4993542;28;20205;-54
2023/09/21 05:43:40;;;;;;;3.43;2.50;;;;;;;;;;4993376;28;20282;-54
2023/09/21 05:46:06;;;;;;;3.40;2.30;;;;;;;;;;4993345;28;20238;-54
2023/09/21 05:48:32;;;;;;;3.47;2.30;;;;;;;;;;4993382;28;20244;-54
2023/09/21 05:50:59;;;;;;;3.40;2.30;;;;;;;;;;4993232;28;20564;-54
2023/09/21 05:53:25;;;;;;;5.23;2.57;;;;;;;;;;4993305;28;20748;-54
2023/09/21 05:55:51;;;;;;;3.63;2.43;;;;;;;;;;4993338;28;20274;-54
2023/09/21 05:58:19;;;;;;;3.40;2.20;;;;;;;;;;4993332;28;20222;-54
2023/09/21 06:00:45;;;;;;;4.33;2.33;;;;;;;;;;4993462;28;20361;-54
2023/09/21 06:03:11;;;;;;;3.80;2.40;;;;;;;;;;4993273;28;20472;-54
2023/09/21 06:05:37;;;;;;;3.10;2.40;;;;;;;;;;4993086;28;20236;-54
2023/09/21 06:08:03;;;;;;;3.63;2.60;;;;;;;;;;4993257;28;20241;-54
2023/09/21 06:10:30;;;;;;;3.33;2.50;;;;;;;;;;4993003;28;20237;-54
2023/09/21 06:12:56;;;;;;;2.60;2.40;;;;;;;;;;4993009;28;20230;-54
2023/09/21 06:15:24;;;;;;;2.30;2.10;;;;;;;;;;4992839;28;20560;-54
2023/09/21 06:17:50;;;;;;;3.07;2.37;;;;;;;;;;4993095;28;20675;-54
2023/09/21 06:20:16;;;;;;;3.10;2.63;;;;;;;;;;4992839;28;20662;-53
2023/09/21 06:22:42;;;;;;;3.73;2.23;;;;;;;;;;4992809;28;20281;-53
2023/09/21 06:25:10;;;;;;;2.70;2.20;;;;;;;;;;4992704;28;20298;-56
2023/09/21 06:27:38;;;;;;;2.87;2.60;;;;;;;;;;4992702;28;20205;-58
2023/09/21 06:30:04;;;;;;;3.50;2.47;;;;;;;;;;4992816;28;20627;-54
2023/09/21 06:32:32;;;;;;;2.87;2.50;;;;;;;;;;4992592;28;20201;-52
2023/09/21 06:34:59;;;;;;;2.23;2.03;;;;;;;;;;4991589;28;20231;-52
2023/09/21 06:37:29;;;;;;;4.37;2.43;;;;;;;;;;4992188;28;20198;-52
2023/09/21 06:39:56;;;;;;;3.37;2.20;;;;;;;;;;4992513;28;20708;-52
2023/09/21 06:42:22;;;;;;;3.03;2.23;;;;;;;;;;4992427;28;20199;-51
2023/09/21 06:44:53;;;;;;;2.57;2.30;;;;;;;;;;4992497;28;20663;-52
2023/09/21 06:47:21;;;;;;;3.87;2.80;;;;;;;;;;4992429;28;20330;-51
2023/09/21 06:49:49;;;;;;;3.10;2.60;;;;;;;;;;4992542;28;20285;-51
2023/09/21 06:52:17;;;;;;;4.07;2.97;;;;;;;;;;4992362;28;20212;-53
2023/09/21 06:54:44;;;;;;;3.60;2.40;;;;;;;;;;4992451;28;20198;-53
2023/09/21 06:57:10;;;;;;;3.10;2.53;;;;;;;;;;4992135;28;20241;-53
2023/09/21 06:59:38;;;;;;;2.30;2.10;;;;;;;;;;4992149;28;20205;-52
2023/09/21 07:02:04;;;;;;;3.97;2.27;;;;;;;;;;4992188;28;20217;-52
2023/09/21 07:04:33;;;;;;;3.60;2.30;;;;;;;;;;4991982;28;20202;-52
2023/09/21 07:07:05;;;;;;;3.73;2.40;;;;;;;;;;4991867;28;20233;-52
2023/09/21 07:09:31;;;;;;;4.80;2.50;;;;;;;;;;4992065;28;20549;-53
2023/09/21 07:11:57;;;;;;;2.57;2.20;;;;;;;;;;4991790;28;20554;-55
2023/09/21 07:14:23;;;;;;;3.37;2.77;;;;;;;;;;4991913;28;20300;-53
2023/09/21 07:16:49;;;;;;;2.63;2.30;;;;;;;;;;4992036;28;20208;-50
2023/09/21 07:19:15;;;;;;;2.60;2.17;;;;;;;;;;4991781;28;20236;-52
2023/09/21 07:21:41;;;;;;;3.27;2.20;;;;;;;;;;4991646;28;20226;-54
2023/09/21 07:24:09;;;;;;;2.53;2.33;;;;;;;;;;4991526;28;20770;-54
2023/09/21 07:26:35;;;;;;;2.93;2.30;;;;;;;;;;4991996;28;20226;-54
2023/09/21 07:29:05;;;;;;;3.10;2.23;;;;;;;;;;4991849;28;20292;-54
2023/09/21 07:31:33;;;;;;;2.90;2.30;;;;;;;;;;4991658;28;20304;-54
2023/09/21 07:37:02;;;;;;;2.83;2.20;;;;;;;;;;4991700;28;20199;-55
2023/09/21 07:39:30;;;;;;;4.10;2.10;;;;;;;;;;4991329;28;20241;-54
2023/09/21 07:41:56;;;;;;;3.83;2.30;;;;;;;;;;4991690;28;20568;-54
2023/09/21 07:44:22;;;;;;;3.67;2.10;;;;;;;;;;4991379;28;20202;-52
2023/09/21 07:46:49;;;;;;;2.53;2.20;;;;;;;;;;4991420;28;20226;-52
2023/09/21 07:49:15;;;;;;;2.87;2.20;;;;;;;;;;4991509;28;20198;-51
2023/09/21 07:51:41;;;;;;;2.40;2.20;;;;;;;;;;4991184;28;20676;-52
2023/09/21 07:54:08;;;;;;;3.17;2.07;;;;;;;;;;4991680;28;20229;-51
2023/09/21 07:56:36;;;;;;;2.77;2.20;;;;;;;;;;4991517;28;20190;-52
2023/09/21 07:59:04;;;;;;;2.00;1.70;;;;;;;;;;4991582;28;20224;-51
2023/09/21 08:01:30;;;;;;;2.60;2.00;;;;;;;;;;4991336;28;20208;-53
2023/09/21 08:03:56;;;;;;;2.57;2.33;;;;;;;;;;4991272;28;20210;-52
2023/09/21 08:09:26;;;;;;;3.70;2.10;;;;;;;;;;4991649;28;20220;-54
2023/09/21 08:11:53;;;;;;;2.80;2.30;;;;;;;;;;4991376;28;20206;-52
2023/09/21 08:14:19;;;;;;;5.07;2.17;;;;;;;;;;4988489;28;20261;-53
2023/09/21 08:16:45;;;;;;;3.47;2.13;;;;;;;;;;5008185;28;20678;-53
2023/09/21 08:19:11;;;;;;;3.03;2.00;;;;;;;;;;5010372;28;20198;-53
2023/09/21 08:21:37;;;;;;;3.33;2.10;;;;;;;;;;5010393;28;20215;-52
2023/09/21 08:24:04;;;;;;;3.97;2.03;;;;;;;;;;5010962;28;20248;-53
2023/09/21 08:26:32;;;;;;;6.77;2.50;;;;;;;;;;5010499;28;20248;-53
2023/09/21 08:28:59;;;;;;;3.67;2.10;;;;;;;;;;5010863;28;20209;-53
2023/09/21 08:31:25;;;;;;;2.90;2.03;;;;;;;;;;5010452;28;20190;-52
2023/09/21 08:33:51;;;;;;;2.00;1.80;;;;;;;;;;5010767;28;20198;-53
2023/09/21 08:36:17;;;;;;;3.60;2.50;;;;;;;;;;5010244;28;20218;-52
2023/09/21 08:38:43;;;;;;;3.63;1.90;;;;;;;;;;5010161;28;20242;-52
2023/09/21 08:41:09;;;;;;;2.37;1.97;;;;;;;;;;5010484;28;20286;-52
2023/09/21 08:43:35;;;;;;;4.27;2.27;;;;;;;;;;5010073;28;20199;-52
2023/09/21 08:46:03;;;;;;;2.63;2.10;;;;;;;;;;5010513;28;20241;-52
2023/09/21 08:48:31;;;;;;;3.53;2.03;;;;;;;;;;5009744;28;20216;-53
2023/09/21 08:50:57;;;;;;;3.90;2.00;;;;;;;;;;5008498;28;20272;-52
2023/09/21 08:53:24;;;;;;;3.10;1.80;;;;;;;;;;5008602;28;20203;-52
2023/09/21 08:55:52;;;;;;;4.17;2.13;;;;;;;;;;5010255;28;20201;-54
2023/09/21 08:58:21;;;;;;;3.77;2.07;;;;;;;;;;5013254;28;20212;-54
2023/09/21 09:00:48;;;;;;;2.73;1.90;;;;;;;;;;5013781;28;20212;-53
2023/09/21 09:03:17;;;;;;;2.50;1.87;;;;;;;;;;5014033;28;20198;-53
2023/09/21 09:05:43;;;;;;;4.23;2.20;;;;;;;;;;5013795;28;20307;-53
2023/09/21 09:08:09;;;;;;;2.60;2.10;;;;;;;;;;5013869;28;20194;-53
2023/09/21 09:10:40;;;;;;;2.83;1.90;;;;;;;;;;5013579;28;20574;-53
2023/09/21 09:13:07;;;;;;;2.30;1.80;;;;;;;;;;5013911;28;20205;-54
2023/09/21 09:15:34;;;;;;;3.43;2.20;;;;;;;;;;5013739;28;20695;-54
2023/09/21 09:18:02;;;;;;;4.33;2.10;;;;;;;;;;5013917;28;20203;-56
2023/09/21 09:20:30;;;;;;;3.30;2.20;;;;;;;;;;5013691;28;20198;-54
2023/09/21 09:22:56;;;;;;;4.67;2.37;;;;;;;;;;5013748;28;20302;-55
2023/09/21 09:25:23;;;;;;;5.30;2.30;;;;;;;;;;5013728;28;20662;-54
2023/09/21 09:27:49;;;;;;;2.83;1.87;;;;;;;;;;5013739;28;20197;-55
2023/09/21 09:30:16;;;;;;;2.67;1.90;;;;;;;;;;5013825;28;20222;-55
2023/09/21 09:32:44;;;;;;;3.97;2.00;;;;;;;;;;5013394;28;20209;-54
2023/09/21 09:35:14;;;;;;;5.30;2.00;;;;;;;;;;5013123;28;20305;-54
2023/09/21 09:37:42;;;;;;;4.17;2.10;;;;;;;;;;5013104;28;20254;-54
2023/09/21 09:40:09;;;;;;;3.30;1.90;;;;;;;;;;5013308;28;20205;-54
2023/09/21 09:42:36;;;;;;;3.30;2.10;;;;;;;;;;5013316;28;20199;-55
2023/09/21 09:45:03;;;;;;;3.17;2.20;;;;;;;;;;5013383;28;20281;-55
2023/09/21 09:47:31;;;;;;;4.10;2.03;;;;;;;;;;5013026;28;20703;-54
2023/09/21 09:49:58;;;;;;;3.77;2.00;;;;;;;;;;5012935;28;20204;-54
2023/09/21 09:52:25;;;;;;;3.87;1.90;;;;;;;;;;5013285;28;20211;-54
2023/09/21 09:54:53;;;;;;;4.70;1.90;;;;;;;;;;5012897;28;20199;-53
2023/09/21 09:57:21;;;;;;;4.83;2.20;;;;;;;;;;5013128;28;20209;-53
2023/09/21 09:59:47;;;;;;;2.53;1.70;;;;;;;;;;5012680;28;20210;-53
2023/09/21 10:02:17;;;;;;;5.33;2.10;;;;;;;;;;5012795;28;20201;-53
2023/09/21 10:04:46;;;;;;;2.63;1.80;;;;;;;;;;5012745;28;20676;-54
2023/09/21 10:07:16;;;;;;;2.23;2.03;;;;;;;;;;5012650;28;20237;-54
2023/09/21 10:09:43;;;;;;;2.27;1.77;;;;;;;;;;5012336;28;20191;-54
2023/09/21 10:12:11;;;;;;;2.00;1.80;;;;;;;;;;5012514;28;20186;-54
2023/09/21 10:14:42;;;;;;;2.63;1.97;;;;;;;;;;5012213;28;20687;-54
2023/09/21 10:17:10;;;;;;;2.20;1.80;;;;;;;;;;5012503;28;20578;-53
2023/09/21 10:19:39;;;;;;;3.00;2.00;;;;;;;;;;5012198;28;20214;-53
2023/09/21 10:22:20;;;;;;;2.40;1.70;;;;;;;;;;5012528;28;20202;-53
2023/09/21 10:24:49;;;;;;;2.77;1.70;;;;;;;;;;5012306;28;20315;-53
2023/09/21 10:27:20;;;;;;;1.97;1.87;;;;;;;;;;5012290;28;20233;-53
2023/09/21 10:29:51;;;;;;;2.40;1.70;;;;;;;;;;5012307;28;20204;-54
2023/09/21 10:32:23;;;;;;;2.40;1.80;;;;;;;;;;5012449;28;20472;-55
2023/09/21 10:34:50;;;;;;;1.90;1.50;;;;;;;;;;5012116;28;20221;-54
2023/09/21 10:37:25;;;;;;;4.07;1.70;;;;;;;;;;5012031;28;20229;-54
2023/09/21 10:39:57;;;;;;;2.40;1.87;;;;;;;;;;5012200;28;20566;-54
2023/09/21 10:42:29;;;;;;;4.43;2.10;;;;;;;;;;5012149;28;20221;-55
2023/09/21 10:45:05;;;;;;;3.30;1.70;;;;;;;;;;5012056;28;20217;-54
2023/09/21 10:47:41;;;;;;;3.17;1.83;;;;;;;;;;5011910;28;20229;-55
2023/09/21 10:50:12;;;;;;;2.30;1.60;;;;;;;;;;5011889;28;20660;-55
2023/09/21 10:52:39;;;;;;;2.20;1.70;;;;;;;;;;5011788;28;20208;-54
2023/09/21 10:55:06;;;;;;;3.20;1.73;;;;;;;;;;5012009;28;20189;-54
2023/09/21 10:57:33;;;;;;;3.00;1.50;;;;;;;;;;5011994;28;20636;-55
2023/09/21 10:59:59;;;;;;;2.87;1.80;;;;;;;;;;5011798;28;20214;-57
2023/09/21 11:02:26;;;;;;;3.13;1.77;;;;;;;;;;5011893;28;20201;-54
2023/09/21 11:04:52;;;;;;;2.37;1.53;;;;;;;;;;5011803;28;20205;-54
2023/09/21 11:07:21;;;;;;;2.17;1.90;;;;;;;;;;5011614;28;20264;-54
2023/09/21 11:09:48;;;;;;;2.80;2.00;;;;;;;;;;5011895;28;20201;-54
2023/09/21 11:12:14;;;;;;;2.73;2.00;;;;;;;;;;5011519;28;20200;-54
2023/09/21 11:14:43;;;;;;;2.03;1.80;;;;;;;;;;5011348;28;20772;-54
2023/09/21 11:17:11;;;;;;;3.00;1.87;;;;;;;;;;5011326;28;20270;-53
2023/09/21 11:19:37;;;;;;;3.30;1.90;;;;;;;;;;5010634;28;20208;-53
2023/09/21 11:22:05;;;;;;;3.80;1.97;;;;;;;;;;5011459;28;20199;-54
2023/09/21 11:24:31;;;;;;;3.27;1.93;;;;;;;;;;5011346;28;20208;-54
2023/09/21 11:26:59;;;;;;;4.23;1.80;;;;;;;;;;5009943;28;20734;-54
2023/09/21 11:29:27;;;;;;;4.30;1.90;;;;;;;;;;5010880;28;20594;-54
2023/09/21 11:31:55;;;;;;;3.77;2.20;;;;;;;;;;5010837;28;20215;-54
2023/09/21 11:34:21;;;;;;;3.17;1.90;;;;;;;;;;5011178;28;20211;-54
2023/09/21 11:36:49;;;;;;;3.47;2.00;;;;;;;;;;5010984;28;20224;-54
2023/09/21 11:39:15;;;;;;;3.50;2.10;;;;;;;;;;5011019;28;20235;-54
2023/09/21 11:41:41;;;;;;;2.00;1.80;;;;;;;;;;5011144;28;20203;-54
2023/09/21 11:44:07;;;;;;;3.00;2.07;;;;;;;;;;5011040;28;20203;-53
2023/09/21 11:46:34;;;;;;;3.43;1.93;;;;;;;;;;5010926;28;20265;-54
2023/09/21 11:49:03;;;;;;;3.80;2.00;;;;;;;;;;5011029;28;20192;-54
2023/09/21 11:51:29;;;;;;;2.60;2.07;;;;;;;;;;5010846;28;20212;-54
2023/09/21 11:54:00;;;;;;;3.10;2.20;;;;;;;;;;5011238;28;20246;-53
2023/09/21 11:56:26;;;;;;;3.50;1.90;;;;;;;;;;5011084;28;20200;-53
2023/09/21 11:58:58;;;;;;;2.60;2.00;;;;;;;;;;5010977;28;20204;-53
2023/09/21 12:01:25;;;;;;;3.07;2.00;;;;;;;;;;5011109;28;20207;-53
2023/09/21 12:03:52;;;;;;;7.93;2.13;;;;;;;;;;5011334;28;20262;-53
2023/09/21 12:06:20;;;;;;;3.73;2.10;;;;;;;;;;5011122;28;20548;-53
2023/09/21 12:08:46;;;;;;;4.20;2.30;;;;;;;;;;5010885;28;20218;-54
2023/09/21 12:11:12;;;;;;;2.07;1.87;;;;;;;;;;5011211;28;20216;-55
2023/09/21 12:13:38;;;;;;;3.07;2.20;;;;;;;;;;5011157;28;20234;-55
2023/09/21 12:16:06;;;;;;;2.13;1.90;;;;;;;;;;5011220;28;20566;-54
2023/09/21 12:18:32;;;;;;;3.00;2.20;;;;;;;;;;5010899;28;20210;-54
2023/09/21 12:21:00;;;;;;;4.93;1.90;;;;;;;;;;5010856;28;20192;-54
2023/09/21 12:23:27;;;;;;;3.50;2.00;;;;;;;;;;5010987;28;20566;-54
2023/09/21 12:25:53;;;;;;;3.80;2.10;;;;;;;;;;5010882;28;20222;-55
2023/09/21 12:28:19;;;;;;;2.83;2.10;;;;;;;;;;5011212;28;20203;-54
2023/09/21 12:30:48;;;;;;;2.77;2.10;;;;;;;;;;5011823;28;20523;-54
2023/09/21 12:33:17;;;;;;;3.67;2.30;;;;;;;;;;5014827;28;20213;-54
2023/09/21 12:35:43;;;;;;;3.13;2.10;;;;;;;;;;5014819;28;20297;-53
2023/09/21 12:38:11;;;;;;;3.97;2.40;;;;;;;;;;5014810;28;20247;-54
2023/09/21 12:40:38;;;;;;;5.63;2.00;;;;;;;;;;5014785;28;20665;-54
2023/09/21 12:43:05;;;;;;;3.00;2.13;;;;;;;;;;5014957;28;20281;-55
2023/09/21 12:45:35;;;;;;;4.60;2.20;;;;;;;;;;5014662;28;20213;-53
2023/09/21 12:48:02;;;;;;;3.77;2.00;;;;;;;;;;5011669;28;20671;-56
2023/09/21 12:50:28;;;;;;;2.63;1.90;;;;;;;;;;5014385;28;20222;-56
2023/09/21 12:52:54;;;;;;;3.30;1.90;;;;;;;;;;5014283;28;20200;-54
2023/09/21 12:55:21;;;;;;;3.70;2.50;;;;;;;;;;5014473;28;20199;-53
2023/09/21 12:57:48;;;;;;;3.73;1.87;;;;;;;;;;5014242;28;20296;-56
2023/09/21 13:00:17;;;;;;;5.90;2.40;;;;;;;;;;5014285;28;20201;-57
2023/09/21 13:02:43;;;;;;;3.50;2.20;;;;;;;;;;5014171;28;20202;-56
2023/09/21 13:05:12;;;;;;;2.23;1.90;;;;;;;;;;5013827;28;20681;-55
2023/09/21 13:07:38;;;;;;;3.33;2.10;;;;;;;;;;5014041;28;20710;-56
2023/09/21 13:10:05;;;;;;;2.87;2.10;;;;;;;;;;5014300;28;20276;-56
2023/09/21 13:12:32;;;;;;;2.53;2.03;;;;;;;;;;5014069;28;20718;-55
2023/09/21 13:15:00;;;;;;;3.50;2.10;;;;;;;;;;5014104;28;20565;-54
2023/09/21 13:17:27;;;;;;;3.33;2.13;;;;;;;;;;5013814;28;20229;-55
2023/09/21 13:19:54;;;;;;;5.03;2.17;;;;;;;;;;5013798;28;20718;-55
2023/09/21 13:22:21;;;;;;;4.27;2.23;;;;;;;;;;5013996;28;20225;-55
2023/09/21 13:24:47;;;;;;;3.30;2.30;;;;;;;;;;5013962;28;20264;-56
2023/09/21 13:27:13;;;;;;;2.50;1.93;;;;;;;;;;5013780;28;20229;-55
2023/09/21 13:29:39;;;;;;;3.00;2.00;;;;;;;;;;5013357;28;20657;-55
2023/09/21 13:32:07;;;;;;;2.87;2.10;;;;;;;;;;5013918;28;20206;-55
2023/09/21 13:34:33;;;;;;;3.50;2.10;;;;;;;;;;5013597;28;20202;-55
2023/09/21 13:36:59;;;;;;;1.80;1.70;;;;;;;;;;5013659;28;20258;-56
2023/09/21 13:39:26;;;;;;;2.43;2.00;;;;;;;;;;5013377;28;20246;-55
2023/09/21 13:41:53;;;;;;;2.23;2.00;;;;;;;;;;5013046;28;20546;-55
2023/09/21 13:44:19;;;;;;;4.20;1.93;;;;;;;;;;5013041;28;20671;-55
2023/09/21 13:46:45;;;;;;;2.50;2.20;;;;;;;;;;5013164;28;20229;-55
2023/09/21 13:49:12;;;;;;;3.63;1.83;;;;;;;;;;5013459;28;20210;-56
2023/09/21 13:51:40;;;;;;;6.90;2.00;;;;;;;;;;5011740;28;20209;-55
2023/09/21 13:54:06;;;;;;;3.67;1.80;;;;;;;;;;5013286;28;20197;-55
2023/09/21 13:56:32;;;;;;;2.10;1.90;;;;;;;;;;5009843;28;20197;-54
2023/09/21 13:58:58;;;;;;;4.90;2.27;;;;;;;;;;5013130;28;20207;-54
2023/09/21 14:01:26;;;;;;;2.57;1.93;;;;;;;;;;5012882;28;20210;-54
2023/09/21 14:03:52;;;;;;;3.03;1.90;;;;;;;;;;5013056;28;20570;-55
2023/09/21 14:06:22;;;;;;;2.20;2.00;;;;;;;;;;5013037;28;20229;-53
2023/09/21 14:08:49;;;;;;;3.43;1.90;;;;;;;;;;5012998;28;20423;-53
2023/09/21 14:11:15;;;;;;;3.43;1.97;;;;;;;;;;5013000;28;20280;-52
2023/09/21 14:13:41;;;;;;;2.37;2.17;;;;;;;;;;5012502;28;20780;-54
2023/09/21 14:16:10;;;;;;;3.10;1.80;;;;;;;;;;5013011;28;20194;-55
2023/09/21 14:18:36;;;;;;;5.53;2.40;;;;;;;;;;5012780;28;20202;-55
2023/09/21 14:21:04;;;;;;;4.63;2.20;;;;;;;;;;5012895;28;20208;-55
2023/09/21 14:23:31;;;;;;;5.87;2.00;;;;;;;;;;5012911;28;20571;-56
2023/09/21 14:25:57;;;;;;;4.10;2.20;;;;;;;;;;5012628;28;20679;-54
2023/09/21 14:28:23;;;;;;;5.30;2.20;;;;;;;;;;5012856;28;20202;-55
2023/09/21 14:30:52;;;;;;;4.27;2.50;;;;;;;;;;5012717;28;20212;-55
2023/09/21 14:33:18;;;;;;;6.73;2.10;;;;;;;;;;5010855;28;20608;-55
2023/09/21 14:35:45;;;;;;;4.03;1.90;;;;;;;;;;5012277;28;20704;-55
2023/09/21 14:38:11;;;;;;;5.30;2.10;;;;;;;;;;5011970;28;20243;-55
2023/09/21 14:40:39;;;;;;;4.67;2.10;;;;;;;;;;5011930;28;20212;-55
2023/09/21 14:43:05;;;;;;;3.47;2.00;;;;;;;;;;5012354;28;20203;-55
2023/09/21 14:45:31;;;;;;;2.67;2.00;;;;;;;;;;5012095;28;20193;-55
2023/09/21 14:47:57;;;;;;;7.57;2.40;;;;;;;;;;5010702;28;20234;-55
2023/09/21 14:50:23;;;;;;;3.03;2.20;;;;;;;;;;5012012;28;20206;-55